Time;durP1;ratioP1;P1;durP2;ratioP2;P2;SDS_P1;SDS_P2;PMS_P1;PMS_P2;Temp;Humidity;BMP_temperature;BMP_pressure;BME280_temperature;BME280_humidity;BME280_pressure;Samples;Min_cycle;Max_cycle;Signal;HPM_P1;HPM_P2
2021/09/20 00:00:19;;;;;;;6.87;6.37;;;17.00;99.90;;;;;;10501899;28;20197;-82
2021/09/20 00:05:23;;;;;;;7.40;6.90;;;17.00;99.90;;;;;;10485237;28;20218;-83
2021/09/20 00:10:25;;;;;;;7.07;6.47;;;17.00;99.90;;;;;;10503803;28;20193;-82
2021/09/20 00:15:27;;;;;;;7.23;6.73;;;17.00;99.90;;;;;;10509092;28;20703;-82
2021/09/20 00:20:31;;;;;;;7.70;7.20;;;17.00;99.90;;;;;;10494451;28;20192;-82
2021/09/20 00:25:33;;;;;;;8.20;7.50;;;17.00;99.90;;;;;;10512767;28;20224;-82
2021/09/20 00:30:37;;;;;;;7.27;6.80;;;16.90;99.90;;;;;;10489512;28;20232;-82
2021/09/20 00:35:40;;;;;;;6.60;6.20;;;16.90;99.90;;;;;;10512555;28;20216;-85
2021/09/20 00:40:43;;;;;;;7.70;7.10;;;16.90;99.90;;;;;;10498089;28;20244;-83
2021/09/20 00:45:46;;;;;;;7.43;6.40;;;16.90;99.90;;;;;;10514731;28;20251;-83
2021/09/20 00:50:50;;;;;;;8.30;7.70;;;16.90;99.90;;;;;;10527410;28;20227;-82
2021/09/20 00:55:52;;;;;;;7.57;6.97;;;16.90;99.90;;;;;;10535376;28;20231;-82
2021/09/20 01:00:54;;;;;;;7.80;7.10;;;16.90;99.90;;;;;;10489437;28;20313;-82
2021/09/20 01:05:58;;;;;;;8.00;7.40;;;16.90;99.90;;;;;;10511797;28;20188;-82
2021/09/20 01:11:01;;;;;;;6.63;6.13;;;16.90;99.90;;;;;;10499603;28;20493;-82
2021/09/20 01:16:04;;;;;;;8.10;7.30;;;16.90;99.90;;;;;;10510653;28;20627;-82
2021/09/20 01:21:07;;;;;;;7.50;6.93;;;16.80;99.90;;;;;;10484016;28;20213;-82
2021/09/20 01:26:11;;;;;;;7.30;6.60;;;16.90;99.90;;;;;;10501656;28;20281;-82
2021/09/20 01:31:13;;;;;;;7.50;7.00;;;16.90;99.90;;;;;;10507746;22;21970;-82
2021/09/20 01:36:15;;;;;;;7.80;7.20;;;16.90;99.90;;;;;;10402664;28;20237;-82
2021/09/20 01:41:19;;;;;;;6.73;6.27;;;16.90;99.90;;;;;;10381929;28;20689;-82
2021/09/20 01:46:21;;;;;;;7.87;7.27;;;16.90;99.90;;;;;;10383566;28;20202;-82
2021/09/20 01:51:23;;;;;;;6.60;6.10;;;16.80;99.90;;;;;;10399298;28;20245;-82
2021/09/20 01:56:27;;;;;;;7.07;6.47;;;16.90;99.90;;;;;;10399670;28;20213;-82
2021/09/20 02:01:30;;;;;;;6.80;6.30;;;16.80;99.90;;;;;;10400754;28;20234;-82
2021/09/20 02:06:32;;;;;;;7.80;7.30;;;16.80;99.90;;;;;;10404091;28;20190;-82
2021/09/20 02:11:35;;;;;;;8.20;7.53;;;16.80;99.90;;;;;;10390300;28;20227;-82
2021/09/20 02:16:38;;;;;;;8.00;7.20;;;16.80;99.90;;;;;;10408124;28;20221;-82
2021/09/20 02:21:40;;;;;;;7.77;7.23;;;16.80;99.90;;;;;;10394333;28;20223;-82
2021/09/20 02:26:43;;;;;;;8.00;7.37;;;16.80;99.90;;;;;;10410869;28;20202;-83
2021/09/20 02:31:46;;;;;;;8.43;7.83;;;16.80;99.90;;;;;;10394628;28;20317;-81
2021/09/20 02:36:48;;;;;;;11.33;8.67;;;16.80;99.90;;;;;;10389713;28;20752;-82
2021/09/20 02:41:51;;;;;;;8.23;7.60;;;16.70;99.90;;;;;;10407631;28;20241;-82
2021/09/20 02:46:53;;;;;;;8.40;7.60;;;16.70;99.90;;;;;;10391048;28;20191;-83
2021/09/20 02:51:55;;;;;;;8.57;7.90;;;16.70;99.90;;;;;;10386827;28;20222;-83
2021/09/20 02:56:59;;;;;;;8.00;7.40;;;16.60;99.90;;;;;;10408945;28;20297;-82
2021/09/20 03:02:01;;;;;;;8.27;7.57;;;16.60;99.90;;;;;;10392904;28;20285;-82
2021/09/20 03:07:04;;;;;;;8.70;8.00;;;16.60;99.90;;;;;;10402076;28;20251;-82
2021/09/20 03:12:08;;;;;;;7.07;6.47;;;16.60;99.90;;;;;;10404025;28;20278;-83
2021/09/20 03:17:10;;;;;;;7.07;6.57;;;16.60;99.90;;;;;;10403744;28;20214;-82
2021/09/20 03:22:12;;;;;;;7.40;6.80;;;16.60;99.90;;;;;;10388094;28;20218;-82
2021/09/20 03:27:16;;;;;;;7.77;7.07;;;16.50;99.90;;;;;;10383159;28;20668;-82
2021/09/20 03:32:18;;;;;;;8.50;7.90;;;16.40;99.90;;;;;;10394522;28;20222;-82
2021/09/20 03:37:20;;;;;;;7.50;6.97;;;16.40;99.90;;;;;;10425252;28;20621;-82
2021/09/20 03:42:23;;;;;;;7.63;7.03;;;16.40;99.90;;;;;;10420177;28;20587;-82
2021/09/20 03:47:25;;;;;;;8.40;7.70;;;16.40;99.90;;;;;;10423446;28;20220;-82
2021/09/20 03:52:28;;;;;;;8.23;7.47;;;16.40;99.90;;;;;;10385541;28;20233;-82
2021/09/20 03:57:31;;;;;;;7.57;6.93;;;16.40;99.90;;;;;;10366679;28;20228;-82
2021/09/20 04:02:33;;;;;;;7.50;7.00;;;16.40;99.90;;;;;;10362605;28;20222;-83
2021/09/20 04:07:38;;;;;;;8.00;7.40;;;16.40;99.90;;;;;;10383740;28;20191;-82
2021/09/20 04:12:43;;;;;;;6.80;6.20;;;16.40;99.90;;;;;;10382667;28;20210;-81
2021/09/20 04:17:45;;;;;;;8.10;7.30;;;16.40;99.90;;;;;;10383247;28;20226;-82
2021/09/20 04:22:48;;;;;;;6.73;6.10;;;16.40;99.90;;;;;;10395681;28;20225;-81
2021/09/20 04:27:51;;;;;;;8.20;7.50;;;16.40;99.90;;;;;;10419407;28;20201;-82
2021/09/20 04:32:53;;;;;;;7.40;6.80;;;16.30;99.90;;;;;;10405517;28;20228;-82
2021/09/20 04:37:55;;;;;;;8.63;7.97;;;16.30;99.90;;;;;;10423126;28;20218;-82
2021/09/20 04:42:59;;;;;;;7.43;6.83;;;16.30;99.90;;;;;;10403472;28;20233;-81
2021/09/20 04:48:01;;;;;;;7.97;7.40;;;16.40;99.90;;;;;;10417996;28;20288;-82
2021/09/20 04:53:03;;;;;;;8.50;7.80;;;16.40;99.90;;;;;;10403241;28;20241;-83
2021/09/20 04:58:08;;;;;;;7.50;6.90;;;16.40;99.90;;;;;;10402366;28;20197;-83
2021/09/20 05:03:10;;;;;;;7.17;6.47;;;16.40;99.90;;;;;;10425750;28;20678;-83
2021/09/20 05:13:30;;;;;;;8.10;7.50;;;16.40;99.90;;;;;;10431959;28;20296;-83
2021/09/20 05:18:32;;;;;;;6.80;6.30;;;16.40;99.90;;;;;;10406316;28;20285;-83
2021/09/20 05:23:34;;;;;;;7.63;7.03;;;16.30;99.90;;;;;;10389632;28;20234;-83
2021/09/20 05:28:37;;;;;;;8.30;7.60;;;16.40;99.90;;;;;;10382204;28;20685;-83
2021/09/20 05:33:40;;;;;;;7.70;7.20;;;16.40;99.90;;;;;;10390535;28;20352;-83
2021/09/20 05:38:42;;;;;;;8.23;7.53;;;16.40;99.90;;;;;;10410880;28;20190;-83
2021/09/20 05:43:49;;;;;;;8.53;7.20;;;16.40;99.90;;;;;;10409931;28;20409;-82
2021/09/20 05:48:52;;;;;;;7.20;6.60;;;16.40;99.90;;;;;;10410069;28;20198;-83
2021/09/20 05:53:54;;;;;;;7.90;7.10;;;16.50;99.90;;;;;;10411248;28;20218;-83
2021/09/20 05:58:57;;;;;;;8.30;7.50;;;16.50;99.90;;;;;;10433370;28;20689;-83
2021/09/20 06:03:59;;;;;;;8.70;8.00;;;16.60;99.90;;;;;;10427771;28;20230;-82
2021/09/20 06:09:02;;;;;;;9.10;8.20;;;16.60;99.90;;;;;;10409347;28;20202;-82
2021/09/20 06:14:05;;;;;;;8.60;7.90;;;16.70;99.90;;;;;;10424998;28;20316;-82
2021/09/20 06:19:07;;;;;;;8.60;7.90;;;16.70;99.90;;;;;;10411539;28;20686;-83
2021/09/20 06:24:09;;;;;;;8.03;7.43;;;16.80;99.90;;;;;;10426123;28;20276;-83
2021/09/20 06:29:13;;;;;;;9.70;8.47;;;16.80;99.90;;;;;;10411576;28;20658;-83
2021/09/20 06:34:15;;;;;;;9.50;8.60;;;16.90;99.90;;;;;;10436894;28;20275;-82
2021/09/20 06:39:18;;;;;;;10.20;9.40;;;17.00;99.90;;;;;;10428419;28;20198;-83
2021/09/20 06:44:21;;;;;;;9.80;8.90;;;17.10;99.90;;;;;;10423639;28;20531;-83
2021/09/20 06:49:27;;;;;;;9.40;8.63;;;17.10;99.90;;;;;;10407733;28;20198;-83
2021/09/20 06:54:29;;;;;;;11.10;10.10;;;17.10;99.90;;;;;;10368654;28;20226;-83
2021/09/20 06:59:33;;;;;;;9.77;8.97;;;17.20;99.90;;;;;;10370368;28;20198;-83
2021/09/20 07:04:35;;;;;;;10.33;9.30;;;17.20;99.90;;;;;;10386556;28;20285;-83
2021/09/20 07:09:37;;;;;;;10.73;9.83;;;17.20;99.90;;;;;;10383961;28;20222;-83
2021/09/20 07:14:42;;;;;;;9.73;8.93;;;17.30;99.90;;;;;;10381814;28;20276;-83
2021/09/20 07:19:44;;;;;;;11.80;10.70;;;17.20;99.90;;;;;;10384995;28;20222;-82
2021/09/20 07:24:48;;;;;;;11.33;10.33;;;17.30;99.90;;;;;;10422050;28;20274;-83
2021/09/20 07:29:52;;;;;;;10.37;9.47;;;17.30;99.90;;;;;;10380405;28;20198;-83
2021/09/20 07:34:54;;;;;;;11.40;10.40;;;17.40;99.90;;;;;;10492186;23;20235;-83
2021/09/20 07:39:58;;;;;;;11.37;10.47;;;17.40;99.90;;;;;;10505832;28;20219;-83
2021/09/20 07:45:01;;;;;;;12.57;11.33;;;17.50;99.90;;;;;;10487701;28;20207;-83
2021/09/20 07:50:05;;;;;;;10.67;9.77;;;17.50;99.90;;;;;;10470967;28;20270;-83
2021/09/20 07:55:10;;;;;;;12.97;11.60;;;17.60;99.90;;;;;;10470300;28;20298;-85
2021/09/20 08:00:15;;;;;;;12.67;11.57;;;17.60;99.90;;;;;;10487422;28;20201;-83
2021/09/20 08:05:17;;;;;;;13.30;11.93;;;17.60;99.90;;;;;;10471211;28;20730;-84
2021/09/20 08:10:20;;;;;;;12.50;11.33;;;17.60;99.90;;;;;;10473179;28;20204;-84
2021/09/20 08:15:25;;;;;;;15.13;13.60;;;17.70;99.90;;;;;;10471179;28;20224;-85
2021/09/20 08:20:28;;;;;;;12.37;11.20;;;17.70;99.90;;;;;;10471403;28;20258;-84
2021/09/20 08:25:33;;;;;;;13.80;12.40;;;17.80;99.90;;;;;;10484415;28;20214;-84
2021/09/20 08:30:37;;;;;;;13.90;12.60;;;17.90;99.90;;;;;;10498343;28;20195;-84
2021/09/20 08:35:39;;;;;;;13.70;12.30;;;18.00;99.90;;;;;;10484348;28;20216;-83
2021/09/20 08:40:41;;;;;;;14.20;12.60;;;18.10;99.90;;;;;;10495418;28;20648;-84
2021/09/20 08:45:45;;;;;;;13.03;11.83;;;18.30;99.90;;;;;;10494002;28;20217;-85
2021/09/20 08:50:47;;;;;;;14.30;13.00;;;18.30;99.90;;;;;;10482975;28;20708;-84
2021/09/20 08:55:50;;;;;;;15.67;14.17;;;18.40;99.90;;;;;;10494938;28;20263;-85
2021/09/20 09:00:54;;;;;;;15.37;13.87;;;18.60;99.90;;;;;;10493491;28;20196;-84
2021/09/20 09:05:57;;;;;;;15.77;14.23;;;18.60;99.90;;;;;;10477418;28;20200;-83
2021/09/20 09:11:01;;;;;;;16.20;14.60;;;18.70;99.90;;;;;;10476995;28;20616;-85
2021/09/20 09:16:17;;;;;;;16.10;14.60;;;18.70;99.90;;;;;;10477924;28;20568;-85
2021/09/20 09:21:20;;;;;;;18.37;16.47;;;18.80;99.90;;;;;;10483151;28;20239;-83
2021/09/20 09:26:22;;;;;;;17.70;16.00;;;18.80;99.90;;;;;;10458446;28;20261;-83
2021/09/20 09:31:34;;;;;;;18.30;16.50;;;18.90;99.90;;;;;;10485502;28;20287;-84
2021/09/20 09:36:41;;;;;;;17.60;15.90;;;18.90;99.90;;;;;;10495997;28;20218;-84
2021/09/20 09:41:44;;;;;;;17.43;15.73;;;19.00;99.90;;;;;;10496616;28;20320;-86
2021/09/20 09:46:48;;;;;;;16.20;14.60;;;19.00;99.90;;;;;;10516486;28;20184;-83
2021/09/20 09:51:55;;;;;;;16.17;14.67;;;19.00;99.90;;;;;;10523902;28;20224;-85
2021/09/20 09:57:18;;;;;;;15.07;13.57;;;19.00;99.90;;;;;;10475468;28;20224;-85
2021/09/20 10:02:25;;;;;;;15.80;14.37;;;19.00;99.90;;;;;;10467585;28;20441;-83
2021/09/20 10:07:30;;;;;;;16.57;14.87;;;19.00;99.90;;;;;;10457997;28;20217;-83
2021/09/20 10:12:32;;;;;;;15.50;14.10;;;19.00;99.90;;;;;;10468957;28;20209;-82
2021/09/20 10:17:36;;;;;;;16.07;14.67;;;19.10;99.90;;;;;;10470198;28;20282;-83
2021/09/20 10:22:39;;;;;;;15.87;14.47;;;19.10;99.90;;;;;;10470310;28;20221;-82
2021/09/20 10:27:41;;;;;;;16.70;15.20;;;19.20;99.90;;;;;;10459401;28;20192;-82
2021/09/20 10:32:50;;;;;;;16.80;15.30;;;19.20;99.90;;;;;;10452477;28;20294;-84
2021/09/20 10:37:54;;;;;;;16.10;14.70;;;19.20;99.90;;;;;;10489514;28;20251;-82
2021/09/20 10:43:06;;;;;;;16.70;15.17;;;19.10;99.90;;;;;;10466976;28;20274;-83
2021/09/20 10:48:21;;;;;;;18.23;16.33;;;19.20;99.90;;;;;;10452902;28;20624;-82
2021/09/20 10:53:32;;;;;;;16.23;14.63;;;19.20;99.90;;;;;;10465742;28;20235;-82
2021/09/20 10:58:36;;;;;;;15.80;14.33;;;19.30;99.90;;;;;;10451531;28;20220;-82
2021/09/20 11:03:43;;;;;;;14.20;12.83;;;19.40;99.90;;;;;;10452791;28;20216;-82
2021/09/20 11:08:46;;;;;;;14.17;12.73;;;19.60;99.90;;;;;;10439032;28;20189;-83
2021/09/20 11:14:01;;;;;;;16.00;14.57;;;19.60;99.90;;;;;;10485945;28;20227;-83
2021/09/20 11:19:45;;;;;;;15.10;13.80;;;19.70;99.90;;;;;;10466318;28;20552;-82
2021/09/20 11:24:50;;;;;;;15.60;14.20;;;19.70;99.90;;;;;;10481697;28;20866;-82
2021/09/20 11:29:55;;;;;;;14.87;13.60;;;19.70;99.90;;;;;;10463732;28;20669;-82
2021/09/20 11:35:01;;;;;;;14.87;13.57;;;19.80;99.90;;;;;;10463937;28;20223;-81
2021/09/20 11:40:07;;;;;;;16.10;14.60;;;19.90;99.90;;;;;;10497009;28;20189;-82
2021/09/20 11:45:13;;;;;;;15.80;14.40;;;20.00;99.90;;;;;;10483645;28;20778;-83
2021/09/20 11:50:20;;;;;;;14.70;13.40;;;20.10;99.90;;;;;;10480712;28;20200;-82
2021/09/20 11:55:25;;;;;;;15.93;14.43;;;20.10;99.90;;;;;;10495554;28;20217;-83
2021/09/20 12:00:30;;;;;;;13.80;12.50;;;20.20;99.90;;;;;;10500095;28;20200;-82
2021/09/20 12:05:35;;;;;;;15.67;14.27;;;20.30;99.90;;;;;;10467833;28;20706;-83
2021/09/20 12:10:39;;;;;;;14.30;13.00;;;20.30;99.90;;;;;;10478355;28;20218;-85
2021/09/20 12:15:44;;;;;;;13.50;12.30;;;20.30;99.90;;;;;;10494514;28;20274;-84
2021/09/20 12:20:50;;;;;;;10.83;9.93;;;20.30;99.90;;;;;;10516752;28;20617;-83
2021/09/20 12:25:56;;;;;;;12.17;11.17;;;20.40;99.90;;;;;;10498745;28;20181;-84
2021/09/20 12:31:02;;;;;;;12.67;11.40;;;20.40;99.90;;;;;;10500167;28;20218;-83
2021/09/20 12:36:17;;;;;;;11.80;10.83;;;20.40;99.90;;;;;;10483894;28;20219;-83
2021/09/20 12:41:19;;;;;;;13.10;12.00;;;20.40;99.90;;;;;;10499096;28;20216;-83
2021/09/20 12:46:22;;;;;;;13.57;12.47;;;20.40;99.90;;;;;;10502110;28;20636;-84
2021/09/20 12:51:35;;;;;;;12.60;11.50;;;20.30;99.90;;;;;;10511972;28;20213;-84
2021/09/20 12:56:37;;;;;;;11.63;10.43;;;20.20;99.90;;;;;;10504710;28;20213;-83
2021/09/20 13:01:54;;;;;;;11.23;10.23;;;20.10;99.90;;;;;;10489645;28;20688;-83
2021/09/20 13:07:04;;;;;;;10.40;9.50;;;20.00;99.90;;;;;;10490431;28;20227;-83
2021/09/20 13:12:10;;;;;;;10.03;9.23;;;19.90;99.90;;;;;;10514512;28;20219;-83
2021/09/20 13:17:12;;;;;;;12.70;11.50;;;19.90;99.90;;;;;;10508454;28;20410;-82
2021/09/20 13:22:15;;;;;;;10.50;9.70;;;19.90;99.90;;;;;;10490515;28;20439;-82
2021/09/20 13:27:19;;;;;;;13.13;11.83;;;19.70;99.90;;;;;;10470743;28;20216;-82
2021/09/20 13:32:24;;;;;;;11.93;10.90;;;19.60;99.90;;;;;;10485988;28;20216;-83
2021/09/20 13:37:27;;;;;;;11.90;10.90;;;19.50;99.90;;;;;;10467676;28;20223;-86
2021/09/20 13:42:29;;;;;;;10.60;9.70;;;19.40;99.90;;;;;;10484218;28;20709;-85
2021/09/20 13:47:32;;;;;;;11.33;10.33;;;19.30;99.90;;;;;;10481723;28;20195;-84
2021/09/20 13:52:35;;;;;;;10.77;9.87;;;19.30;99.90;;;;;;10467744;28;20684;-86
2021/09/20 13:57:37;;;;;;;11.20;10.20;;;19.20;99.90;;;;;;10491427;28;20217;-85
2021/09/20 14:02:41;;;;;;;9.27;8.53;;;19.20;99.90;;;;;;10464470;28;20216;-85
2021/09/20 14:07:44;;;;;;;9.90;9.10;;;19.20;99.90;;;;;;10468562;28;20378;-85
2021/09/20 14:12:48;;;;;;;10.50;9.60;;;19.20;99.90;;;;;;10484035;28;20656;-84
2021/09/20 14:17:51;;;;;;;10.67;9.67;;;19.40;99.90;;;;;;10500989;28;20220;-83
2021/09/20 14:22:55;;;;;;;8.23;7.50;;;19.60;99.90;;;;;;10464685;28;20216;-83
2021/09/20 14:27:59;;;;;;;9.40;8.60;;;19.70;99.90;;;;;;10463811;28;20552;-84
2021/09/20 14:33:01;;;;;;;9.20;8.60;;;19.80;99.90;;;;;;10460665;28;20285;-84
2021/09/20 14:38:06;;;;;;;9.00;8.30;;;19.80;99.90;;;;;;10463286;28;20220;-85
2021/09/20 14:43:08;;;;;;;10.03;9.27;;;19.90;99.90;;;;;;10498618;28;20211;-84
2021/09/20 14:48:11;;;;;;;11.10;10.20;;;19.90;99.90;;;;;;10468523;28;20208;-85
2021/09/20 14:53:15;;;;;;;9.47;8.67;;;19.90;99.90;;;;;;10482670;28;20234;-85
2021/09/20 14:58:17;;;;;;;9.50;8.73;;;19.90;99.90;;;;;;10460579;28;20733;-86
2021/09/20 15:03:21;;;;;;;9.80;9.10;;;19.90;99.90;;;;;;10482687;28;20311;-86
2021/09/20 15:08:24;;;;;;;9.53;8.87;;;19.90;99.90;;;;;;10468948;28;20627;-86
2021/09/20 15:13:27;;;;;;;10.27;9.37;;;19.90;99.90;;;;;;10450370;28;20680;-85
2021/09/20 15:18:29;;;;;;;9.33;8.63;;;19.90;99.90;;;;;;10459564;28;20220;-86
2021/09/20 15:23:34;;;;;;;7.23;6.77;;;19.80;99.90;;;;;;10459357;28;20308;-82
2021/09/20 15:28:36;;;;;;;9.70;8.87;;;19.70;99.90;;;;;;10430059;28;20258;-86
2021/09/20 15:33:39;;;;;;;9.03;8.33;;;19.70;99.90;;;;;;10443356;28;20235;-85
2021/09/20 15:38:43;;;;;;;8.80;8.10;;;19.70;99.90;;;;;;10442021;28;20213;-84
2021/09/20 15:43:47;;;;;;;9.30;8.60;;;19.60;99.90;;;;;;10487433;28;20234;-86
2021/09/20 15:48:49;;;;;;;9.90;9.13;;;19.60;99.90;;;;;;10472722;28;20235;-85
2021/09/20 15:53:53;;;;;;;9.77;8.97;;;19.60;99.90;;;;;;10482132;28;20238;-84
2021/09/20 15:58:56;;;;;;;9.53;8.83;;;19.60;99.90;;;;;;10484286;28;20287;-86
2021/09/20 16:03:59;;;;;;;8.87;8.27;;;19.50;99.90;;;;;;10464709;28;20306;-86
2021/09/20 16:09:03;;;;;;;9.60;8.90;;;19.50;99.90;;;;;;10477908;28;20199;-85
2021/09/20 16:14:05;;;;;;;9.90;9.10;;;19.40;99.90;;;;;;10464998;28;20221;-86
2021/09/20 16:19:09;;;;;;;8.87;8.17;;;19.40;99.90;;;;;;10483577;28;20212;-86
2021/09/20 16:24:14;;;;;;;8.87;8.17;;;19.30;99.90;;;;;;10465380;28;20216;-83
2021/09/20 16:29:16;;;;;;;9.40;8.53;;;19.30;99.90;;;;;;10482626;28;20188;-85
2021/09/20 16:34:23;;;;;;;8.17;7.57;;;19.20;99.90;;;;;;10431156;28;20248;-84
2021/09/20 16:39:28;;;;;;;12.23;11.13;;;19.10;99.90;;;;;;10465217;28;20239;-85
2021/09/20 16:44:30;;;;;;;10.80;9.90;;;19.00;99.90;;;;;;10482451;28;20220;-86
2021/09/20 16:49:32;;;;;;;10.40;9.53;;;19.00;99.90;;;;;;10466895;28;20679;-86
2021/09/20 16:54:37;;;;;;;10.73;9.93;;;18.90;99.90;;;;;;10482339;28;20311;-85
2021/09/20 16:59:39;;;;;;;10.43;9.53;;;18.90;99.90;;;;;;10470286;28;20695;-86
2021/09/20 17:04:41;;;;;;;12.17;10.97;;;18.80;99.90;;;;;;10467665;28;20255;-85
2021/09/20 17:09:44;;;;;;;13.10;12.00;;;18.70;99.90;;;;;;10472237;28;20435;-85
2021/09/20 17:14:46;;;;;;;11.47;10.57;;;18.60;99.90;;;;;;10489307;28;20227;-84
2021/09/20 17:19:49;;;;;;;13.07;11.97;;;18.60;99.90;;;;;;10470069;28;20224;-84
2021/09/20 17:25:28;;;;;;;10.83;9.93;;;18.50;99.90;;;;;;10467255;28;20652;-86
2021/09/20 17:30:35;;;;;;;12.77;11.57;;;18.50;99.90;;;;;;10462189;28;20258;-86
2021/09/20 17:35:38;;;;;;;12.27;11.27;;;18.50;99.90;;;;;;10489684;28;20312;-86
2021/09/20 17:40:40;;;;;;;12.83;11.63;;;18.50;99.90;;;;;;10488370;28;20254;-84
2021/09/20 17:45:44;;;;;;;12.37;11.37;;;18.40;99.90;;;;;;10484171;28;20320;-85
2021/09/20 17:50:47;;;;;;;12.97;11.87;;;18.40;99.90;;;;;;10485223;28;20189;-86
2021/09/20 17:55:49;;;;;;;12.60;11.60;;;18.40;99.90;;;;;;10484956;28;20298;-85
2021/09/20 18:00:52;;;;;;;13.90;12.80;;;18.30;99.90;;;;;;10484806;28;20252;-86
2021/09/20 18:05:55;;;;;;;12.67;11.57;;;18.30;99.90;;;;;;10484668;28;20231;-87
2021/09/20 18:10:57;;;;;;;12.07;11.10;;;18.30;99.90;;;;;;10483161;28;20649;-87
2021/09/20 18:16:01;;;;;;;12.70;11.70;;;18.30;99.90;;;;;;10483343;28;20236;-86
2021/09/20 18:21:03;;;;;;;12.83;11.73;;;18.20;99.90;;;;;;10484007;28;20197;-87
2021/09/20 18:26:06;;;;;;;13.00;11.80;;;18.10;99.90;;;;;;10467372;28;20291;-87
2021/09/20 18:31:11;;;;;;;13.73;12.33;;;18.10;99.90;;;;;;10502481;28;20591;-88
2021/09/20 18:36:14;;;;;;;14.40;13.10;;;18.10;99.90;;;;;;10446046;28;20726;-89
2021/09/20 18:41:16;;;;;;;14.33;12.73;;;18.10;99.90;;;;;;10457577;28;20217;-87
2021/09/20 18:46:20;;;;;;;14.77;13.57;;;18.00;99.90;;;;;;10476240;28;20189;-88
2021/09/20 18:51:23;;;;;;;15.13;13.83;;;18.00;99.90;;;;;;10478063;28;20216;-86
2021/09/20 18:56:25;;;;;;;14.33;13.10;;;18.00;99.90;;;;;;10473703;28;20304;-86
2021/09/20 19:01:29;;;;;;;14.10;12.80;;;18.00;99.90;;;;;;10431047;28;20551;-86
2021/09/20 19:06:31;;;;;;;13.73;12.63;;;17.90;99.90;;;;;;10471587;28;20253;-84
2021/09/20 19:11:34;;;;;;;15.30;13.70;;;17.90;99.90;;;;;;10473340;28;20258;-85
2021/09/20 19:16:37;;;;;;;13.33;12.23;;;17.80;99.90;;;;;;10504806;28;20207;-86
2021/09/20 19:21:40;;;;;;;13.83;12.63;;;17.80;99.90;;;;;;10503215;28;20262;-87
2021/09/20 19:26:43;;;;;;;13.40;12.27;;;17.70;99.90;;;;;;10504576;28;20199;-86
2021/09/20 19:31:47;;;;;;;12.80;11.60;;;17.60;99.90;;;;;;10542996;22;20255;-85
2021/09/20 19:36:49;;;;;;;13.73;12.57;;;17.50;99.90;;;;;;10476259;28;20740;-85
2021/09/20 19:41:51;;;;;;;13.80;12.70;;;17.40;99.90;;;;;;10490040;28;20208;-85
2021/09/20 19:46:55;;;;;;;12.70;11.73;;;17.40;99.90;;;;;;10472877;28;20246;-85
2021/09/20 19:51:58;;;;;;;13.47;12.10;;;17.30;99.90;;;;;;10472901;28;20216;-86
2021/09/20 19:57:00;;;;;;;13.50;12.40;;;17.20;99.90;;;;;;10470455;28;20255;-85
2021/09/20 20:02:04;;;;;;;13.60;12.40;;;17.20;99.90;;;;;;10452829;28;20230;-86
2021/09/20 20:07:07;;;;;;;13.93;12.53;;;17.20;99.90;;;;;;10472141;28;20215;-85
2021/09/20 20:12:09;;;;;;;12.93;11.93;;;17.10;99.90;;;;;;10463136;28;20308;-87
2021/09/20 20:17:38;;;;;;;32.73;29.60;;;17.00;99.90;;;;;;10486848;28;20212;-86
2021/09/20 20:22:47;;;;;;;26.60;24.43;;;17.00;99.90;;;;;;10471259;28;20590;-86
2021/09/20 20:27:49;;;;;;;14.43;13.23;;;16.80;99.90;;;;;;10472050;28;20197;-86
2021/09/20 20:32:56;;;;;;;17.07;15.73;;;16.80;99.90;;;;;;10479238;28;20282;-86
2021/09/20 20:37:58;;;;;;;20.40;18.70;;;16.60;99.90;;;;;;10480018;28;20216;-87
2021/09/20 20:43:03;;;;;;;15.33;13.80;;;16.60;99.90;;;;;;10470656;28;20782;-86
2021/09/20 20:48:12;;;;;;;13.80;12.60;;;16.60;99.90;;;;;;10454779;28;20280;-86
2021/09/20 20:53:17;;;;;;;13.80;12.70;;;16.60;99.90;;;;;;10437971;28;20223;-86
2021/09/20 20:58:22;;;;;;;12.50;11.43;;;16.60;99.90;;;;;;10456025;28;20304;-86
2021/09/20 21:03:28;;;;;;;13.43;12.13;;;16.70;99.90;;;;;;10470708;28;20220;-86
2021/09/20 21:08:46;;;;;;;11.07;10.20;;;16.70;99.90;;;;;;10478419;28;20607;-86
2021/09/20 21:13:52;;;;;;;13.37;12.10;;;16.70;99.90;;;;;;10470903;28;20213;-87
2021/09/20 21:18:56;;;;;;;12.90;11.77;;;16.70;99.90;;;;;;10453106;28;20252;-86
2021/09/20 21:23:59;;;;;;;10.90;10.10;;;16.70;99.90;;;;;;10438790;28;20225;-86
2021/09/20 21:29:01;;;;;;;11.93;10.93;;;16.70;99.90;;;;;;10456597;28;20193;-86
2021/09/20 21:34:14;;;;;;;11.30;10.50;;;16.70;99.90;;;;;;10450877;28;20604;-86
2021/09/20 21:39:19;;;;;;;9.30;8.60;;;16.70;99.90;;;;;;10439249;28;20244;-86
2021/09/20 21:44:24;;;;;;;9.60;8.83;;;16.70;99.90;;;;;;10455845;28;20221;-86
2021/09/20 21:49:36;;;;;;;9.97;9.17;;;16.70;99.90;;;;;;10441946;28;20220;-86
2021/09/20 21:54:39;;;;;;;10.43;8.83;;;16.70;99.90;;;;;;10439727;28;20606;-86
2021/09/20 21:59:41;;;;;;;10.30;9.47;;;16.70;99.90;;;;;;10449889;28;20584;-86
2021/09/20 22:04:45;;;;;;;9.90;9.10;;;16.70;99.90;;;;;;10463563;28;20310;-86
2021/09/20 22:09:47;;;;;;;10.20;9.40;;;16.80;99.90;;;;;;10438478;28;20269;-86
2021/09/20 22:14:54;;;;;;;9.70;8.80;;;16.80;99.90;;;;;;10443008;28;20220;-86
2021/09/20 22:19:58;;;;;;;10.27;9.47;;;16.80;99.90;;;;;;10455174;28;20733;-85
2021/09/20 22:25:03;;;;;;;9.90;9.10;;;16.80;99.90;;;;;;10438464;28;20235;-86
2021/09/20 22:30:06;;;;;;;10.17;9.37;;;16.80;99.90;;;;;;10444249;28;20223;-86
2021/09/20 22:35:12;;;;;;;9.43;8.63;;;16.80;99.90;;;;;;10497169;28;20228;-86
2021/09/20 22:40:14;;;;;;;9.37;8.57;;;16.80;99.90;;;;;;10481492;28;20217;-87
2021/09/20 22:45:16;;;;;;;9.80;9.03;;;16.80;99.90;;;;;;10454271;28;20221;-87
2021/09/20 22:50:20;;;;;;;10.37;9.47;;;16.80;99.90;;;;;;10459153;28;20224;-87
2021/09/20 22:55:23;;;;;;;10.27;9.37;;;16.80;99.90;;;;;;10455293;28;20303;-87
2021/09/20 23:00:25;;;;;;;10.10;9.30;;;16.80;99.90;;;;;;10457981;28;20278;-86
2021/09/20 23:05:29;;;;;;;9.60;8.80;;;16.80;99.90;;;;;;10474557;28;20308;-86
2021/09/20 23:10:33;;;;;;;11.03;10.00;;;16.80;99.90;;;;;;10456614;28;20841;-86
2021/09/20 23:15:36;;;;;;;10.70;9.80;;;16.90;99.90;;;;;;10472362;28;20238;-87
2021/09/20 23:20:39;;;;;;;10.07;9.27;;;16.90;99.90;;;;;;10474352;28;20221;-86
2021/09/20 23:25:42;;;;;;;11.23;10.33;;;16.90;99.90;;;;;;10474330;28;20205;-87
2021/09/20 23:30:44;;;;;;;11.13;10.23;;;16.90;99.90;;;;;;10457024;28;20568;-86
2021/09/20 23:35:48;;;;;;;11.13;10.03;;;16.90;99.90;;;;;;10454723;28;20220;-85
2021/09/20 23:40:50;;;;;;;10.37;9.57;;;17.00;99.90;;;;;;10457214;28;20247;-86
2021/09/20 23:45:55;;;;;;;10.87;10.07;;;17.00;99.90;;;;;;10453388;28;20561;-86
2021/09/20 23:50:59;;;;;;;11.13;9.60;;;17.00;99.90;;;;;;10478069;28;20238;-86
2021/09/20 23:56:01;;;;;;;12.33;11.33;;;17.00;99.90;;;;;;10493467;28;20209;-86
